Time;durP1;ratioP1;P1;durP2;ratioP2;P2;SDS_P1;SDS_P2;PMS_P1;PMS_P2;Temp;Humidity;BMP_temperature;BMP_pressure;BME280_temperature;BME280_humidity;BME280_pressure;Samples;Min_cycle;Max_cycle;Signal;HPM_P1;HPM_P2
2021/12/03 00:00:46;;;;;;;14.60;13.13;;;;;;;6.44;56.63;97112.38;8348251;28;20555;-64
2021/12/03 00:04:49;;;;;;;13.73;12.17;;;;;;;6.44;56.55;97119.25;8347554;28;20557;-64
2021/12/03 00:08:53;;;;;;;12.57;11.37;;;;;;;6.50;57.03;97123.31;8348566;28;20243;-64
2021/12/03 00:12:58;;;;;;;13.30;11.90;;;;;;;6.61;56.40;97141.72;8348080;28;20234;-64
2021/12/03 00:17:01;;;;;;;13.20;11.10;;;;;;;6.59;56.29;97153.81;8347534;28;20539;-64
2021/12/03 00:21:08;;;;;;;11.40;10.37;;;;;;;6.63;56.79;97170.78;8347944;28;20303;-64
2021/12/03 00:25:11;;;;;;;11.80;10.70;;;;;;;6.30;57.41;97184.09;8315126;28;20243;-65
2021/12/03 00:29:15;;;;;;;11.23;10.13;;;;;;;6.39;57.26;97181.16;8323410;28;20236;-64
2021/12/03 00:33:19;;;;;;;10.93;9.83;;;;;;;6.35;57.27;97192.47;8314900;28;20240;-64
2021/12/03 00:37:22;;;;;;;10.83;9.70;;;;;;;6.35;57.35;97201.94;8314665;28;20240;-64
2021/12/03 00:41:28;;;;;;;10.03;9.13;;;;;;;6.45;57.60;97204.09;8314625;28;20274;-63
2021/12/03 00:45:33;;;;;;;9.63;8.73;;;;;;;6.38;57.38;97204.38;8314603;28;20233;-64
2021/12/03 00:49:36;;;;;;;8.70;8.00;;;;;;;6.26;57.91;97209.13;8314368;28;20228;-64
2021/12/03 00:53:40;;;;;;;9.23;8.43;;;;;;;6.31;57.90;97211.50;8314466;28;20228;-65
2021/12/03 00:57:43;;;;;;;9.30;8.40;;;;;;;6.11;58.01;97204.56;8314560;28;20239;-65
2021/12/03 01:01:48;;;;;;;8.60;7.90;;;;;;;6.22;57.78;97210.09;8314308;28;20239;-65
2021/12/03 01:05:52;;;;;;;9.07;8.27;;;;;;;6.38;57.38;97209.53;8292957;28;20229;-65
2021/12/03 01:09:54;;;;;;;8.60;7.90;;;;;;;6.42;57.26;97218.78;8298013;28;20413;-65
2021/12/03 01:14:00;;;;;;;8.50;7.80;;;;;;;6.37;57.37;97220.69;8298010;28;20414;-65
2021/12/03 01:18:05;;;;;;;8.40;7.67;;;;;;;6.30;57.36;97232.94;8297934;28;20238;-65
2021/12/03 01:22:08;;;;;;;8.43;7.73;;;;;;;6.32;57.61;97238.03;8297254;28;20404;-65
2021/12/03 01:26:11;;;;;;;7.33;6.73;;;;;;;6.10;57.72;97241.44;8298068;28;20243;-65
2021/12/03 01:30:16;;;;;;;7.70;6.90;;;;;;;5.83;58.36;97251.00;8304059;28;20539;-65
2021/12/03 01:34:21;;;;;;;7.67;6.77;;;;;;;6.25;57.72;97256.28;8303606;28;20232;-65
2021/12/03 01:38:24;;;;;;;8.40;7.63;;;;;;;6.12;58.07;97261.94;8303528;28;20232;-65
2021/12/03 01:42:28;;;;;;;7.93;7.23;;;;;;;6.01;58.71;97268.31;8307085;28;20237;-65
2021/12/03 01:46:32;;;;;;;8.10;7.40;;;;;;;6.24;58.13;97269.19;8321713;28;20201;-65
2021/12/03 01:50:38;;;;;;;8.10;7.40;;;;;;;6.31;57.69;97274.94;8307844;28;20237;-65
2021/12/03 01:54:42;;;;;;;8.83;8.03;;;;;;;6.35;57.09;97272.19;8302998;28;20233;-65
2021/12/03 01:58:47;;;;;;;7.90;7.20;;;;;;;6.39;57.14;97284.03;8303117;28;20238;-65
2021/12/03 02:02:50;;;;;;;8.37;7.67;;;;;;;6.25;57.54;97271.72;8302933;28;20258;-65
2021/12/03 02:06:55;;;;;;;9.03;8.20;;;;;;;6.23;57.22;97283.78;8302889;28;20241;-65
2021/12/03 02:10:58;;;;;;;8.50;7.80;;;;;;;6.28;57.33;97282.78;8302966;28;20558;-65
2021/12/03 02:15:01;;;;;;;8.13;7.43;;;;;;;6.37;57.19;97280.69;8302880;28;20232;-65
2021/12/03 02:19:04;;;;;;;8.33;7.63;;;;;;;6.43;57.12;97289.91;8303077;28;20562;-65
2021/12/03 02:23:08;;;;;;;8.10;7.30;;;;;;;6.53;56.69;97293.81;8301799;28;20544;-66
2021/12/03 02:27:11;;;;;;;9.33;8.53;;;;;;;6.43;57.14;97295.88;8302669;28;20425;-65
2021/12/03 02:31:16;;;;;;;9.07;8.27;;;;;;;6.45;57.08;97296.69;8318421;28;20233;-65
2021/12/03 02:35:21;;;;;;;9.13;8.33;;;;;;;6.17;57.67;97293.44;8318499;28;20228;-65
2021/12/03 02:39:26;;;;;;;9.60;8.70;;;;;;;6.35;57.67;97300.47;8317784;28;20565;-65
2021/12/03 02:43:29;;;;;;;9.07;8.27;;;;;;;6.37;57.62;97300.44;8317923;28;20304;-65
2021/12/03 02:47:32;;;;;;;10.73;9.83;;;;;;;6.24;58.03;97306.03;8318055;28;20228;-65
2021/12/03 02:51:35;;;;;;;11.40;10.30;;;;;;;6.33;56.83;97296.31;8317870;28;20232;-65
2021/12/03 02:55:39;;;;;;;12.57;11.33;;;;;;;6.38;56.63;97300.38;8317958;28;20228;-65
2021/12/03 02:59:42;;;;;;;11.80;10.70;;;;;;;6.39;56.94;97308.91;8317410;28;20413;-65
2021/12/03 03:03:45;;;;;;;11.57;10.47;;;;;;;6.17;56.93;97302.03;8329751;28;20228;-65
2021/12/03 03:07:49;;;;;;;11.40;10.40;;;;;;;6.25;56.91;97301.72;8350446;28;20530;-65
2021/12/03 03:11:53;;;;;;;12.20;11.10;;;;;;;6.29;56.43;97315.31;8349971;28;20232;-65
2021/12/03 03:15:57;;;;;;;12.13;11.03;;;;;;;6.29;56.67;97320.47;8350002;28;20232;-65
2021/12/03 03:20:01;;;;;;;13.17;11.90;;;;;;;6.12;56.60;97321.09;8350019;28;20243;-65
2021/12/03 03:24:07;;;;;;;11.67;10.57;;;;;;;6.21;56.79;97331.88;8349904;28;20240;-65
2021/12/03 03:28:12;;;;;;;13.23;12.03;;;;;;;6.20;56.65;97334.47;8349118;28;20247;-65
2021/12/03 03:32:15;;;;;;;13.57;12.17;;;;;;;6.18;56.28;97344.00;8349980;28;20235;-65
2021/12/03 03:36:18;;;;;;;13.57;12.33;;;;;;;5.91;57.13;97346.63;8349714;28;20414;-65
2021/12/03 03:40:21;;;;;;;13.67;12.47;;;;;;;6.12;56.50;97354.50;8349588;28;20236;-65
2021/12/03 03:44:25;;;;;;;14.47;13.17;;;;;;;5.77;56.78;97348.84;8349376;28;20538;-65
2021/12/03 03:48:28;;;;;;;13.37;12.17;;;;;;;6.07;56.54;97357.22;8348699;28;20262;-65
2021/12/03 03:52:32;;;;;;;12.60;11.30;;;;;;;6.00;56.80;97363.50;8348713;28;20554;-65
2021/12/03 03:56:35;;;;;;;13.63;12.33;;;;;;;6.18;55.89;97365.38;8348544;28;20239;-65
2021/12/03 04:00:43;;;;;;;14.00;12.60;;;;;;;6.02;56.36;97372.00;8348161;28;20232;-65
2021/12/03 04:04:47;;;;;;;14.03;12.77;;;;;;;6.00;57.14;97376.34;8348171;28;20235;-65
2021/12/03 04:08:50;;;;;;;13.77;12.47;;;;;;;6.04;56.99;97386.47;8348517;28;20398;-64
2021/12/03 04:12:53;;;;;;;13.73;12.43;;;;;;;6.02;56.51;97385.69;8348155;28;20236;-65
2021/12/03 04:16:57;;;;;;;13.10;11.80;;;;;;;6.11;56.26;97388.81;8348086;28;20228;-65
2021/12/03 04:21:00;;;;;;;13.33;12.03;;;;;;;6.05;56.39;97385.56;8347972;28;20410;-65
2021/12/03 04:25:06;;;;;;;13.03;11.83;;;;;;;6.11;56.42;97383.66;8347994;28;20244;-65
2021/12/03 04:29:09;;;;;;;14.23;11.90;;;;;;;6.15;56.20;97390.38;8339678;28;20235;-65
2021/12/03 04:33:13;;;;;;;13.23;11.90;;;;;;;5.96;55.83;97403.88;8347604;28;20235;-65
2021/12/03 04:37:16;;;;;;;12.67;11.47;;;;;;;6.04;55.96;97406.19;8347679;28;20236;-65
2021/12/03 04:41:19;;;;;;;12.93;11.63;;;;;;;6.02;56.05;97420.84;8347716;28;20555;-65
2021/12/03 04:45:24;;;;;;;13.40;12.07;;;;;;;5.74;56.37;97431.16;8347427;28;20231;-65
2021/12/03 04:49:29;;;;;;;13.00;11.20;;;;;;;5.91;55.82;97439.16;8347502;28;20250;-65
2021/12/03 04:53:32;;;;;;;11.33;10.17;;;;;;;5.80;54.37;97447.22;8347394;28;20228;-65
2021/12/03 04:57:35;;;;;;;10.57;9.57;;;;;;;5.43;55.49;97433.00;8347501;28;20239;-65
2021/12/03 05:01:39;;;;;;;10.37;9.23;;;;;;;6.06;54.80;97442.97;8350638;28;20236;-65
2021/12/03 05:05:49;;;;;;;11.00;10.00;;;;;;;6.01;54.41;97447.41;8353625;28;20251;-65
2021/12/03 05:09:54;;;;;;;11.37;10.20;;;;;;;5.83;54.87;97452.25;8354226;28;20228;-65
2021/12/03 05:13:57;;;;;;;11.63;9.63;;;;;;;5.68;55.54;97458.75;8354373;28;20291;-65
2021/12/03 05:18:00;;;;;;;11.20;9.90;;;;;;;5.78;55.42;97466.97;8353836;28;20539;-64
2021/12/03 05:22:05;;;;;;;11.43;10.30;;;;;;;5.71;55.85;97480.09;8353533;28;20248;-65
2021/12/03 05:26:08;;;;;;;9.93;8.93;;;;;;;5.70;55.22;97486.13;8328971;28;20388;-65
2021/12/03 05:30:12;;;;;;;10.03;9.00;;;;;;;5.52;54.81;97479.84;8353076;28;20236;-65
2021/12/03 05:34:16;;;;;;;9.77;8.80;;;;;;;5.75;55.04;97479.09;8353084;28;20420;-65
2021/12/03 05:38:21;;;;;;;11.37;8.70;;;;;;;5.94;54.20;97484.47;8353190;28;20231;-65
2021/12/03 05:42:24;;;;;;;10.47;8.53;;;;;;;5.93;54.38;97495.66;8352680;28;20569;-65
2021/12/03 05:46:27;;;;;;;10.40;9.40;;;;;;;5.81;54.50;97507.16;8352639;28;20538;-65
2021/12/03 05:50:31;;;;;;;9.67;8.67;;;;;;;5.65;54.11;97517.94;8352496;28;20234;-65
2021/12/03 05:54:35;;;;;;;8.00;7.20;;;;;;;5.49;53.90;97509.03;8381782;28;20452;-65
2021/12/03 05:58:39;;;;;;;7.87;7.07;;;;;;;5.49;54.45;97519.31;8362346;28;20236;-64
2021/12/03 06:02:42;;;;;;;8.40;7.50;;;;;;;5.68;53.79;97527.28;8359353;28;20232;-65
2021/12/03 06:06:45;;;;;;;8.80;8.00;;;;;;;5.74;53.65;97529.63;8364621;28;20295;-65
2021/12/03 06:10:49;;;;;;;8.03;7.23;;;;;;;5.71;53.08;97529.72;8368358;28;20238;-65
2021/12/03 06:14:52;;;;;;;8.70;7.70;;;;;;;5.75;53.39;97533.91;8375080;28;20235;-65
2021/12/03 06:18:55;;;;;;;7.70;7.00;;;;;;;5.79;53.25;97545.75;8365707;28;20220;-65
2021/12/03 06:22:58;;;;;;;8.47;7.57;;;;;;;5.73;53.77;97552.81;8351333;28;20239;-65
2021/12/03 06:27:03;;;;;;;8.93;8.03;;;;;;;5.75;54.01;97548.47;8364181;28;20250;-65
2021/12/03 06:31:07;;;;;;;9.50;8.57;;;;;;;5.77;53.79;97544.97;8366668;28;20223;-65
2021/12/03 06:35:12;;;;;;;9.73;8.83;;;;;;;5.66;53.38;97553.00;8380326;28;20231;-64
2021/12/03 06:39:15;;;;;;;9.87;8.87;;;;;;;5.62;53.47;97553.16;8384285;28;20514;-65
2021/12/03 06:43:20;;;;;;;10.20;9.20;;;;;;;5.59;53.31;97555.81;8383993;28;20235;-65
2021/12/03 06:47:24;;;;;;;10.57;8.90;;;;;;;5.59;53.71;97564.34;8382992;28;20242;-65
2021/12/03 06:51:27;;;;;;;9.77;8.77;;;;;;;5.66;53.59;97571.00;8383819;28;20234;-65
2021/12/03 06:55:36;;;;;;;9.37;8.37;;;;;;;5.68;53.35;97565.81;8383813;28;20240;-65
2021/12/03 06:59:41;;;;;;;9.07;8.17;;;;;;;5.58;52.83;97582.38;8383140;28;20232;-65
2021/12/03 07:03:44;;;;;;;8.73;7.93;;;;;;;5.55;53.38;97588.47;8370451;28;20254;-65
2021/12/03 07:07:47;;;;;;;8.30;7.50;;;;;;;5.51;53.24;97596.31;8349912;28;20262;-65
2021/12/03 07:11:50;;;;;;;8.63;7.83;;;;;;;5.51;53.62;97599.72;8350011;28;20527;-65
2021/12/03 07:15:54;;;;;;;8.80;8.00;;;;;;;5.48;53.23;97610.94;8350055;28;20556;-65
2021/12/03 07:19:58;;;;;;;8.07;7.27;;;;;;;5.40;53.32;97622.31;8349717;28;20246;-65
2021/12/03 07:24:01;;;;;;;8.40;7.60;;;;;;;5.43;53.48;97627.38;8349386;28;20251;-64
2021/12/03 07:28:04;;;;;;;9.03;8.10;;;;;;;5.61;53.35;97624.22;8349422;28;20251;-65
2021/12/03 07:32:09;;;;;;;8.43;7.60;;;;;;;5.68;53.31;97630.88;8348897;28;20236;-65
2021/12/03 07:36:12;;;;;;;8.30;7.50;;;;;;;5.64;53.62;97643.88;8349202;28;20319;-65
2021/12/03 07:40:15;;;;;;;8.03;7.33;;;;;;;5.65;53.45;97641.25;8348986;28;20236;-64
2021/12/03 07:44:18;;;;;;;7.97;7.20;;;;;;;5.62;53.42;97645.66;8349035;28;20301;-65
2021/12/03 07:48:23;;;;;;;8.07;7.27;;;;;;;5.72;53.27;97659.06;8349095;28;20232;-65
2021/12/03 07:52:26;;;;;;;7.93;7.23;;;;;;;5.65;53.54;97658.38;8349057;28;20603;-65
2021/12/03 07:56:29;;;;;;;7.87;6.73;;;;;;;5.74;53.21;97658.13;8348905;28;20398;-65
2021/12/03 08:00:32;;;;;;;7.50;6.80;;;;;;;5.56;53.55;97661.22;8348418;28;20246;-65
2021/12/03 08:04:52;;;;;;;7.07;6.37;;;;;;;5.84;52.82;97668.94;8348682;28;20286;-65
2021/12/03 08:08:55;;;;;;;8.40;7.70;;;;;;;5.88;52.93;97670.53;8348769;28;20418;-65
2021/12/03 08:13:01;;;;;;;12.77;11.47;;;;;;;5.71;52.69;97671.03;8348370;28;20235;-65
2021/12/03 08:17:04;;;;;;;11.47;8.43;;;;;;;5.74;53.47;97678.66;8347667;28;20562;-65
2021/12/03 08:21:09;;;;;;;9.03;7.20;;;;;;;5.87;52.06;97671.44;8348154;28;20239;-65
2021/12/03 08:25:13;;;;;;;7.93;7.13;;;;;;;5.93;51.88;97671.25;8348605;28;20529;-65
2021/12/03 08:29:16;;;;;;;7.50;6.63;;;;;;;6.19;51.28;97667.09;8347919;28;20243;-64
2021/12/03 08:33:19;;;;;;;7.40;6.80;;;;;;;6.14;51.61;97671.53;8347608;28;20240;-65
2021/12/03 08:37:27;;;;;;;6.77;6.13;;;;;;;6.21;50.64;97668.72;8347145;28;20445;-64
2021/12/03 08:41:30;;;;;;;7.37;5.97;;;;;;;6.14;50.48;97682.63;8347405;28;20228;-65
2021/12/03 08:45:34;;;;;;;7.23;6.13;;;;;;;6.09;49.85;97683.66;8347746;28;20402;-65
2021/12/03 08:49:39;;;;;;;7.33;6.67;;;;;;;6.08;50.20;97682.84;8347721;28;20238;-65
2021/12/03 08:58:19;;;;;;;7.60;6.90;;;;;;;6.19;50.20;97697.94;8345548;28;20254;-65
2021/12/03 09:02:24;;;;;;;7.60;6.90;;;;;;;6.39;50.44;97687.84;8347097;28;20546;-65
2021/12/03 09:06:27;;;;;;;8.23;7.43;;;;;;;6.11;49.80;97694.75;8347763;28;20596;-65
2021/12/03 09:10:32;;;;;;;8.60;7.70;;;;;;;6.18;50.09;97697.06;8347478;28;20232;-65
2021/12/03 09:14:39;;;;;;;8.50;7.80;;;;;;;6.37;49.60;97704.22;8346862;28;20526;-65
2021/12/03 09:18:43;;;;;;;9.27;8.33;;;;;;;6.33;50.06;97711.19;8347290;28;20234;-65
2021/12/03 09:22:57;;;;;;;9.70;8.80;;;;;;;6.34;50.29;97715.47;8347345;28;20409;-64
2021/12/03 09:27:01;;;;;;;8.87;7.97;;;;;;;6.22;50.01;97710.69;8346881;28;20297;-64
2021/12/03 09:31:05;;;;;;;8.47;7.50;;;;;;;6.16;49.84;97695.44;8346953;28;20244;-64
2021/12/03 09:35:09;;;;;;;8.97;8.17;;;;;;;6.06;49.93;97694.91;8346492;28;20239;-65
2021/12/03 09:39:16;;;;;;;8.77;7.87;;;;;;;6.16;49.06;97696.28;8347209;28;20306;-64
2021/12/03 09:43:20;;;;;;;9.23;8.07;;;;;;;6.24;49.58;97694.34;8346492;28;20236;-64
2021/12/03 09:47:24;;;;;;;8.33;7.07;;;;;;;5.98;49.83;97682.28;8348107;28;20462;-65
2021/12/03 09:51:31;;;;;;;8.18;7.38;;;;;;;6.37;49.34;97683.66;8351795;28;20425;-64
2021/12/03 09:55:34;;;;;;;10.80;6.60;;;;;;;9.18;59.20;97693.81;8352509;28;20231;-72
2021/12/03 10:04:18;;;;;;;8.53;7.77;;;;;;;8.23;45.88;97690.78;8355035;28;20231;-75
2021/12/03 10:12:50;;;;;;;8.47;7.53;;;;;;;7.87;45.28;97667.25;8373377;28;20416;-75
2021/12/03 10:17:35;;;;;;;7.13;6.47;;;;;;;7.41;44.83;97671.53;8383910;28;20227;-72
2021/12/03 10:39:32;;;;;;;8.60;7.00;;;;;;;8.09;43.86;97656.94;8383084;28;20254;-72
2021/12/03 10:43:59;;;;;;;8.30;7.13;;;;;;;8.14;43.77;97654.19;8382599;28;20239;-73
2021/12/03 10:48:16;;;;;;;7.37;6.67;;;;;;;8.23;44.29;97656.41;8382813;28;20227;-75
2021/12/03 10:57:34;;;;;;;10.00;6.73;;;;;;;7.55;44.37;97660.72;8409662;27;20373;-72
2021/12/03 11:02:42;;;;;;;7.77;6.67;;;;;;;7.75;44.80;97663.41;8342249;28;20230;-77
2021/12/03 11:11:40;;;;;;;6.63;5.93;;;;;;;7.06;45.13;97668.47;8299224;28;20236;-74
2021/12/03 14:39:44;;;;;;;7.27;3.47;;;;;;;6.78;46.21;97530.44;8345257;28;20244;-65
2021/12/03 14:44:05;;;;;;;7.43;4.10;;;;;;;6.72;47.15;97540.97;8344787;28;20232;-65
2021/12/03 14:48:28;;;;;;;10.97;3.90;;;;;;;6.89;46.98;97535.19;8345190;28;20230;-65
2021/12/03 14:52:36;;;;;;;5.93;3.60;;;;;;;6.81;46.70;97535.47;8344926;28;20430;-65
2021/12/03 14:56:40;;;;;;;6.43;3.50;;;;;;;6.56;46.75;97534.66;8344931;28;20232;-65
2021/12/03 15:00:53;;;;;;;6.83;3.47;;;;;;;6.71;47.04;97523.00;8344837;28;20435;-65
2021/12/03 15:05:14;;;;;;;6.20;3.50;;;;;;;6.74;46.94;97520.31;8344649;28;20358;-64
2021/12/03 15:09:20;;;;;;;5.23;3.10;;;;;;;6.72;47.28;97519.53;8344666;28;20519;-65
2021/12/03 15:13:41;;;;;;;7.90;4.70;;;;;;;6.64;47.34;97515.50;8344706;28;20262;-64
2021/12/03 15:22:13;;;;;;;7.17;4.40;;;;;;;6.17;48.75;97515.44;8341500;28;20546;-73
2021/12/03 15:26:27;;;;;;;10.97;5.33;;;;;;;6.64;47.29;97517.22;8338291;28;20228;-71
2021/12/03 15:30:44;;;;;;;5.27;4.00;;;;;;;6.29;47.71;97519.31;8344592;28;20228;-70
2021/12/03 15:34:56;;;;;;;5.97;4.13;;;;;;;6.54;47.69;97503.03;8344527;28;20312;-72
2021/12/03 15:39:19;;;;;;;6.17;4.33;;;;;;;6.37;48.07;97519.03;8346055;28;20240;-72
2021/12/03 15:56:41;;;;;;;8.90;5.87;;;;;;;6.33;48.84;97495.16;8383285;28;20567;-72
2021/12/03 16:05:11;;;;;;;7.93;5.30;;;;;;;6.33;48.85;97499.47;8351274;28;20235;-75
2021/12/03 16:09:25;;;;;;;6.73;4.60;;;;;;;6.11;49.10;97487.34;8342600;28;20232;-73
2021/12/03 16:13:42;;;;;;;7.73;4.90;;;;;;;6.18;48.76;97501.66;8349972;28;20424;-71
2021/12/03 16:18:10;;;;;;;9.20;5.20;;;;;;;6.18;48.87;97495.69;8348654;28;20295;-72
2021/12/03 16:44:00;;;;;;;8.87;6.10;;;;;;;5.75;50.21;97456.81;8347799;28;20283;-73
2021/12/03 16:52:31;;;;;;;7.37;5.33;;;;;;;5.71;50.11;97459.53;8275242;28;21645;-74
2021/12/03 16:56:50;;;;;;;7.77;5.43;;;;;;;5.86;49.87;97464.16;8347479;28;20244;-74
2021/12/03 17:01:00;;;;;;;6.83;5.43;;;;;;;5.88;50.11;97463.22;8345591;28;20458;-73
2021/12/03 17:05:23;;;;;;;8.13;6.13;;;;;;;6.03;49.97;97464.44;8347206;28;20227;-73
2021/12/03 17:44:42;;;;;;;7.30;4.87;;;;;;;5.68;50.64;97421.94;8345286;28;20408;-72
2021/12/03 17:57:33;;;;;;;14.50;5.77;;;;;;;5.73;50.28;97422.63;8340628;28;20219;-74
2021/12/03 18:01:44;;;;;;;10.63;6.23;;;;;;;5.65;50.02;97420.31;8347829;28;20234;-73
2021/12/03 18:45:18;;;;;;;20.13;14.77;;;;;;;5.32;50.29;97362.34;8346969;28;20236;-73
2021/12/03 18:54:13;;;;;;;20.80;16.67;;;;;;;4.95;51.76;97340.44;8378956;28;20423;-72
2021/12/03 18:58:18;;;;;;;17.20;14.30;;;;;;;5.07;51.81;97348.59;8348272;28;20431;-73
2021/12/03 19:02:23;;;;;;;15.77;12.57;;;;;;;4.84;52.18;97335.66;8350400;28;20412;-72
2021/12/03 19:06:30;;;;;;;13.97;10.33;;;;;;;4.89;51.93;97331.19;8366269;28;20232;-73
2021/12/03 19:10:42;;;;;;;15.40;10.20;;;;;;;4.78;52.33;97323.84;8347727;28;20223;-75
2021/12/03 19:14:50;;;;;;;12.80;9.33;;;;;;;4.05;53.82;97322.59;8347435;28;20231;-74
2021/12/03 19:18:55;;;;;;;13.73;8.90;;;;;;;4.35;52.92;97314.91;8353404;28;20234;-74
2021/12/03 19:23:00;;;;;;;11.23;9.13;;;;;;;4.39;53.03;97297.72;8353358;28;20231;-74
2021/12/03 19:27:04;;;;;;;11.63;8.73;;;;;;;4.28;53.96;97287.75;8353317;28;20236;-74
2021/12/03 19:31:07;;;;;;;10.37;8.23;;;;;;;3.83;54.72;97278.00;8353022;28;20539;-73
2021/12/03 19:35:11;;;;;;;9.63;8.30;;;;;;;4.54;52.78;97281.03;8353008;28;20432;-73
2021/12/03 19:39:16;;;;;;;10.43;8.33;;;;;;;4.41;52.38;97283.94;8356156;28;20236;-73
2021/12/03 19:43:26;;;;;;;13.10;9.27;;;;;;;4.53;52.67;97271.63;8353454;28;20240;-73
2021/12/03 19:47:32;;;;;;;13.57;10.77;;;;;;;3.69;55.16;97265.56;8352873;28;20290;-74
2021/12/03 19:51:42;;;;;;;11.60;9.13;;;;;;;4.25;53.88;97257.13;8371795;28;20232;-74
2021/12/03 19:55:46;;;;;;;12.17;8.37;;;;;;;4.07;54.79;97258.50;8354149;28;20236;-74
2021/12/03 19:59:49;;;;;;;11.27;8.40;;;;;;;3.79;55.25;97251.63;8381765;28;20442;-74
2021/12/03 20:03:54;;;;;;;11.57;8.40;;;;;;;4.32;53.99;97245.78;8385102;28;20238;-73
2021/12/03 20:07:59;;;;;;;12.63;9.03;;;;;;;4.14;54.51;97244.63;8358902;28;20236;-73
2021/12/03 20:12:08;;;;;;;9.67;8.03;;;;;;;4.10;54.43;97253.28;8352447;28;20247;-73
2021/12/03 20:16:20;;;;;;;12.07;9.23;;;;;;;4.13;54.74;97247.22;8351501;28;20236;-73
2021/12/03 20:20:24;;;;;;;11.87;8.80;;;;;;;4.50;53.48;97224.69;8351668;28;20232;-74
2021/12/03 20:24:32;;;;;;;11.17;8.60;;;;;;;4.30;53.64;97230.47;8351620;28;20235;-73
2021/12/03 20:28:40;;;;;;;12.93;8.77;;;;;;;4.43;53.76;97232.63;8351200;28;20236;-74
2021/12/03 20:33:00;;;;;;;11.47;6.40;;;;;;;5.71;65.74;97231.69;8358318;28;20243;-74
2021/12/03 20:37:06;;;;;;;11.33;8.50;;;;;;;6.56;50.21;97231.09;8351250;28;20438;-69
2021/12/03 20:41:14;;;;;;;10.60;8.20;;;;;;;5.37;50.93;97227.78;8343335;28;20234;-68
2021/12/03 20:49:51;;;;;;;12.87;10.10;;;;;;;4.73;52.59;97212.03;8351157;28;20228;-68
2021/12/03 20:54:15;;;;;;;13.37;10.87;;;;;;;4.62;52.92;97209.81;8350666;28;20558;-68
2021/12/03 21:11:32;;;;;;;9.50;7.70;;;;;;;4.85;52.13;97184.22;8348587;28;20224;-67
2021/12/03 21:15:43;;;;;;;9.03;7.23;;;;;;;4.66;52.10;97178.91;8349312;28;20228;-67
2021/12/03 21:19:53;;;;;;;10.10;6.97;;;;;;;4.68;52.35;97174.53;8345453;28;20231;-67
2021/12/03 21:23:56;;;;;;;9.43;6.77;;;;;;;4.98;51.89;97166.69;8346658;28;20255;-68
2021/12/03 21:28:05;;;;;;;14.87;9.20;;;;;;;4.73;51.62;97160.72;8348839;28;20235;-67
2021/12/03 21:32:18;;;;;;;15.70;9.97;;;;;;;4.62;52.76;97148.25;8348317;28;20433;-67
2021/12/03 21:45:37;;;;;;;10.53;7.17;;;;;;;4.67;52.66;97107.91;8376339;27;20553;-65
2021/12/03 21:49:40;;;;;;;11.20;8.03;;;;;;;5.07;52.19;97116.78;8340267;28;20460;-66
2021/12/03 21:53:43;;;;;;;10.60;8.23;;;;;;;5.14;51.45;97118.22;8333053;28;20232;-65
2021/12/03 21:57:46;;;;;;;10.37;8.60;;;;;;;5.27;51.24;97105.75;8342349;28;20235;-66
2021/12/03 22:01:50;;;;;;;13.20;10.23;;;;;;;5.00;51.44;97098.19;8372900;28;20250;-66
2021/12/03 22:05:54;;;;;;;10.80;8.67;;;;;;;5.19;51.09;97103.47;8374946;28;20231;-65
2021/12/03 22:09:57;;;;;;;10.53;8.00;;;;;;;5.19;50.73;97105.22;8372040;28;20257;-68
2021/12/03 22:14:00;;;;;;;8.83;6.53;;;;;;;5.14;51.27;97097.69;8365067;28;20310;-66
2021/12/03 22:18:05;;;;;;;11.03;7.37;;;;;;;5.39;50.75;97101.94;8372435;28;20445;-66
2021/12/03 22:22:08;;;;;;;10.73;7.57;;;;;;;5.51;50.38;97100.63;8373761;28;20549;-67
2021/12/03 22:26:12;;;;;;;9.00;7.10;;;;;;;5.62;50.30;97085.66;8374217;28;20261;-66
2021/12/03 22:30:15;;;;;;;8.37;6.90;;;;;;;5.23;51.46;97086.25;8374591;28;20238;-66
2021/12/03 22:34:20;;;;;;;9.83;7.50;;;;;;;5.34;51.15;97078.16;8366058;28;20223;-66
2021/12/03 22:38:23;;;;;;;8.90;8.00;;;;;;;5.57;50.60;97074.69;8374108;28;20379;-66
2021/12/03 22:42:27;;;;;;;8.27;7.40;;;;;;;5.63;50.70;97069.31;8371548;28;20243;-66
2021/12/03 22:46:40;;;;;;;9.37;8.40;;;;;;;5.45;50.58;97060.59;8373967;28;20231;-66
2021/12/03 22:50:47;;;;;;;10.57;8.20;;;;;;;5.60;50.70;97065.16;8374493;28;20242;-65
2021/12/03 22:54:50;;;;;;;11.17;8.43;;;;;;;5.43;50.77;97045.25;8363094;28;20243;-66
2021/12/03 22:58:53;;;;;;;8.70;7.90;;;;;;;5.54;50.69;97034.56;8352196;28;20435;-66
2021/12/03 23:02:56;;;;;;;10.13;9.03;;;;;;;5.21;50.97;97024.69;8352052;28;20451;-66
2021/12/03 23:07:02;;;;;;;10.07;9.03;;;;;;;5.72;50.69;97014.19;8352113;28;20557;-67
2021/12/03 23:11:05;;;;;;;10.33;8.57;;;;;;;5.48;50.70;97006.53;8351697;28;20232;-66
2021/12/03 23:15:09;;;;;;;10.53;8.60;;;;;;;5.64;50.24;96999.91;8351200;28;20410;-67
2021/12/03 23:19:12;;;;;;;10.13;9.10;;;;;;;5.35;51.04;96993.38;8351363;28;20236;-67
2021/12/03 23:23:17;;;;;;;10.33;9.10;;;;;;;5.50;51.00;96976.50;8351366;28;20554;-66
2021/12/03 23:27:19;;;;;;;10.07;8.87;;;;;;;5.54;50.53;96974.66;8343035;28;20557;-66
2021/12/03 23:31:22;;;;;;;11.07;9.37;;;;;;;5.32;51.63;96962.66;8351233;28;20236;-66
2021/12/03 23:35:26;;;;;;;11.27;9.30;;;;;;;5.49;51.00;96954.31;8351278;28;20292;-66
2021/12/03 23:39:30;;;;;;;10.73;8.83;;;;;;;5.17;51.54;96951.25;8351328;28;20254;-65
2021/12/03 23:43:33;;;;;;;10.77;9.67;;;;;;;5.09;52.93;96951.56;8350733;28;20240;-66
2021/12/03 23:47:36;;;;;;;9.90;8.90;;;;;;;4.90;53.65;96945.47;8350884;28;20224;-65
2021/12/03 23:51:53;;;;;;;11.03;9.10;;;;;;;5.14;52.55;96925.72;8341259;28;20232;-67
2021/12/03 23:55:58;;;;;;;10.37;8.70;;;;;;;4.94;53.08;96930.78;8350851;28;20236;-67
